Time;durP1;ratioP1;P1;durP2;ratioP2;P2;SDS_P1;SDS_P2;PMS_P1;PMS_P2;Temp;Humidity;BMP_temperature;BMP_pressure;BME280_temperature;BME280_humidity;BME280_pressure;Samples;Min_cycle;Max_cycle;Signal;HPM_P1;HPM_P2
2022/09/04 00:02:41;;;;;;;7.93;7.13;;;;;;;20.05;56.61;101263.09;4989479;28;20030;-58
2022/09/04 00:05:22;;;;;;;7.70;6.90;;;;;;;20.02;56.74;101273.69;4989105;28;20026;-58
2022/09/04 00:08:10;;;;;;;8.05;7.25;;;;;;;19.98;57.18;101270.19;4988554;28;20177;-59
2022/09/04 00:10:36;;;;;;;8.40;7.25;;;;;;;19.93;58.70;101267.59;4989971;28;20037;-58
2022/09/04 00:13:09;;;;;;;8.13;6.95;;;;;;;19.86;59.09;101270.31;4987845;28;20030;-58
2022/09/04 00:15:41;;;;;;;8.50;7.60;;;;;;;19.82;59.04;101271.22;4991304;28;20034;-57
2022/09/04 00:18:29;;;;;;;8.10;7.30;;;;;;;19.75;58.77;101279.13;4987204;28;20117;-57
2022/09/04 00:21:06;;;;;;;8.43;7.55;;;;;;;19.69;58.58;101283.63;4989372;28;20038;-57
2022/09/04 00:23:49;;;;;;;8.30;7.07;;;;;;;19.68;57.96;101280.06;4989143;28;20031;-58
2022/09/04 00:26:26;;;;;;;8.57;7.75;;;;;;;19.68;58.19;101279.22;4989887;28;20101;-58
2022/09/04 00:28:59;;;;;;;7.43;6.68;;;;;;;19.66;58.72;101281.00;4986727;28;20296;-58
2022/09/04 00:31:35;;;;;;;8.52;7.70;;;;;;;19.66;59.07;101279.22;4982834;28;20155;-58
2022/09/04 00:34:19;;;;;;;8.57;7.60;;;;;;;19.61;59.48;101284.53;4981115;28;20023;-57
2022/09/04 00:36:49;;;;;;;8.13;7.15;;;;;;;19.53;59.46;101277.56;4983623;28;20083;-57
2022/09/04 00:39:19;;;;;;;7.28;6.57;;;;;;;19.50;58.92;101281.09;4983785;28;20029;-58
2022/09/04 00:41:57;;;;;;;7.63;6.50;;;;;;;19.51;57.47;101287.25;4980615;28;20300;-58
2022/09/04 00:44:48;;;;;;;7.88;7.07;;;;;;;19.46;57.13;101287.28;4985405;28;20030;-59
2022/09/04 00:47:31;;;;;;;8.88;7.32;;;;;;;19.46;57.10;101279.34;4988463;28;20032;-59
2022/09/04 00:50:32;;;;;;;8.38;7.47;;;;;;;19.45;57.36;101289.06;4983159;28;20074;-59
2022/09/04 00:53:25;;;;;;;9.57;8.65;;;;;;;19.40;59.14;101287.31;4983493;28;20037;-58
2022/09/04 00:56:24;;;;;;;9.63;8.73;;;;;;;19.40;58.13;101289.97;4983155;28;20026;-58
2022/09/04 00:59:05;;;;;;;;;;;;;;;19.47;57.07;101294.34;4986913;28;20109;-59
2022/09/04 01:01:30;;;;;;;8.95;8.15;;;;;;;19.34;60.31;101292.66;4987049;28;19926;-59
2022/09/04 01:03:58;;;;;;;9.50;8.60;;;;;;;19.29;59.68;101295.28;4986870;28;20034;-58
2022/09/04 01:06:55;;;;;;;10.77;8.00;;;;;;;19.27;58.21;101300.59;4987860;28;20037;-58
2022/09/04 01:09:51;;;;;;;9.63;8.60;;;;;;;19.26;58.55;101298.84;4988222;28;20105;-58
2022/09/04 01:12:39;;;;;;;10.23;9.07;;;;;;;19.22;58.78;101294.47;4986515;28;20425;-58
2022/09/04 01:15:14;;;;;;;9.55;8.65;;;;;;;19.22;58.85;101305.03;4989045;28;20506;-58
2022/09/04 01:18:03;;;;;;;10.30;8.15;;;;;;;19.21;58.37;101303.28;4985468;28;20045;-58
2022/09/04 01:21:05;;;;;;;9.60;8.63;;;;;;;19.17;58.94;101306.81;4981716;28;20042;-59
2022/09/04 01:24:09;;;;;;;9.43;8.52;;;;;;;19.14;58.91;101312.09;4981689;28;20030;-56
2022/09/04 01:27:08;;;;;;;9.50;8.43;;;;;;;19.03;59.83;101314.81;4981569;28;20398;-58
2022/09/04 01:30:05;;;;;;;9.15;8.27;;;;;;;19.01;59.69;101331.53;4999777;28;20606;-58
2022/09/04 01:32:56;;;;;;;9.07;8.20;;;;;;;18.88;59.63;101326.28;4983687;28;20034;-58
2022/09/04 01:35:49;;;;;;;9.50;8.70;;;;;;;18.82;60.01;101331.56;4984125;28;20015;-58
2022/09/04 01:38:24;;;;;;;9.60;8.70;;;;;;;18.82;59.67;101326.28;4981474;28;20037;-58
2022/09/04 01:41:00;;;;;;;9.73;8.82;;;;;;;18.81;60.03;101326.28;4983136;28;20058;-58
2022/09/04 01:43:26;;;;;;;11.35;9.25;;;;;;;18.80;60.41;101325.41;4985084;28;20756;-59
2022/09/04 01:46:28;;;;;;;10.15;9.15;;;;;;;18.79;60.57;101326.28;4989077;28;20030;-58
2022/09/04 01:49:15;;;;;;;10.10;9.10;;;;;;;18.75;60.53;101329.81;4988737;28;20041;-58
2022/09/04 01:51:46;;;;;;;10.77;8.68;;;;;;;18.74;61.14;101330.69;4987384;28;20034;-58
2022/09/04 01:54:39;;;;;;;9.98;8.68;;;;;;;18.71;61.23;101330.69;4988377;28;20488;-58
2022/09/04 01:57:42;;;;;;;9.65;8.23;;;;;;;18.69;60.05;101343.03;4985927;28;20655;-58
2022/09/04 02:00:15;;;;;;;11.35;8.32;;;;;;;18.62;60.10;101341.28;4985874;28;20022;-58
2022/09/04 02:03:14;;;;;;;9.35;8.40;;;;;;;18.63;59.17;101348.34;4988539;28;20396;-58
2022/09/04 02:06:07;;;;;;;9.57;7.90;;;;;;;18.58;58.81;101346.56;4989400;28;20042;-58
2022/09/04 02:09:09;;;;;;;9.23;8.27;;;;;;;18.50;60.20;101358.03;4986901;28;20027;-58
2022/09/04 02:11:35;;;;;;;9.48;8.55;;;;;;;18.42;61.21;101348.34;4987798;28;20026;-58
2022/09/04 02:14:08;;;;;;;10.15;8.68;;;;;;;18.39;61.80;101352.75;4986709;28;20039;-58
2022/09/04 02:16:55;;;;;;;9.48;8.52;;;;;;;18.37;61.88;101357.16;4990500;28;20089;-58
2022/09/04 02:20:02;;;;;;;9.20;8.27;;;;;;;18.33;61.12;101368.59;4984657;28;20521;-58
2022/09/04 02:22:28;;;;;;;8.68;7.82;;;;;;;18.30;61.41;101364.19;4986650;28;20094;-58
2022/09/04 02:25:03;;;;;;;9.13;8.23;;;;;;;18.26;61.91;101365.06;4988649;28;20022;-58
2022/09/04 02:27:51;;;;;;;9.27;8.35;;;;;;;18.22;61.88;101364.19;4978406;28;20312;-58
2022/09/04 02:30:19;;;;;;;8.65;7.85;;;;;;;18.14;63.27;101365.94;4985129;28;20034;-58
2022/09/04 02:33:01;;;;;;;8.88;8.07;;;;;;;18.16;62.07;101368.56;4987305;28;20561;-58
2022/09/04 02:35:58;;;;;;;9.15;8.02;;;;;;;18.15;61.72;101370.34;4985385;28;20035;-58
2022/09/04 02:38:31;;;;;;;8.23;7.43;;;;;;;18.11;60.91;101368.56;4985021;28;21679;-58
2022/09/04 02:41:07;;;;;;;8.48;7.68;;;;;;;18.11;61.24;101370.34;4985652;28;20030;-58
2022/09/04 02:43:51;;;;;;;9.88;8.68;;;;;;;18.11;61.02;101372.97;4988411;28;20049;-57
2022/09/04 02:46:35;;;;;;;9.65;8.65;;;;;;;18.08;61.31;101369.44;4992399;28;20031;-57
2022/09/04 02:49:13;;;;;;;9.43;8.40;;;;;;;18.05;62.20;101373.84;4989295;28;20113;-58
2022/09/04 02:52:08;;;;;;;9.45;8.55;;;;;;;18.03;61.82;101376.50;4989336;28;20061;-57
2022/09/04 02:54:51;;;;;;;9.57;8.05;;;;;;;17.99;62.13;101385.25;4989441;28;20023;-57
2022/09/04 02:57:58;;;;;;;9.50;8.60;;;;;;;17.97;62.43;101387.00;4989420;28;20026;-58
2022/09/04 03:01:01;;;;;;;9.05;8.15;;;;;;;17.96;62.92;101387.00;4990830;28;20441;-58
2022/09/04 03:03:34;;;;;;;8.50;7.70;;;;;;;17.92;63.32;101386.13;4989775;28;20122;-58
2022/09/04 03:06:07;;;;;;;8.63;7.72;;;;;;;17.87;63.55;101385.19;4988870;28;20040;-58
2022/09/04 03:08:35;;;;;;;8.57;7.78;;;;;;;17.83;64.64;101391.34;4990336;28;20478;-58
2022/09/04 03:11:19;;;;;;;8.57;7.78;;;;;;;17.80;64.32;101397.50;4990457;28;20066;-58
2022/09/04 03:14:25;;;;;;;8.25;7.38;;;;;;;17.78;64.11;101396.59;4984529;28;20018;-58
2022/09/04 03:16:59;;;;;;;8.90;8.00;;;;;;;17.73;64.42;101388.69;4989240;28;20402;-58
2022/09/04 03:19:41;;;;;;;9.27;8.30;;;;;;;17.73;64.31;101391.31;4989843;28;20156;-58
2022/09/04 03:22:14;;;;;;;9.00;8.10;;;;;;;17.72;64.38;101397.47;4986198;28;20037;-58
2022/09/04 03:24:48;;;;;;;8.68;7.88;;;;;;;17.69;63.96;101394.81;4989058;28;20030;-57
2022/09/04 03:27:15;;;;;;;8.88;7.95;;;;;;;17.68;64.41;101405.34;4988312;28;20468;-57
2022/09/04 03:29:50;;;;;;;8.80;7.80;;;;;;;17.66;63.97;101393.94;4989338;28;20022;-58
2022/09/04 03:32:35;;;;;;;8.55;7.75;;;;;;;17.64;64.17;101393.94;4991294;28;20033;-58
2022/09/04 03:35:18;;;;;;;8.25;7.43;;;;;;;17.66;63.38;101397.44;4987653;28;20030;-59
2022/09/04 03:38:02;;;;;;;8.43;7.63;;;;;;;17.61;65.38;101401.84;4989292;28;20093;-59
2022/09/04 03:40:34;;;;;;;8.63;7.72;;;;;;;17.61;65.50;101403.56;4983882;28;20030;-58
2022/09/04 03:43:05;;;;;;;8.05;7.25;;;;;;;17.62;65.12;101405.34;4981518;28;20097;-58
2022/09/04 03:45:38;;;;;;;8.20;7.40;;;;;;;17.60;65.29;101401.81;4988347;28;20018;-58
2022/09/04 03:48:26;;;;;;;8.80;7.50;;;;;;;17.58;64.88;101403.56;4988982;28;20500;-58
2022/09/04 03:51:01;;;;;;;10.07;8.18;;;;;;;17.53;65.32;101407.06;4991934;28;20057;-58
2022/09/04 03:53:44;;;;;;;8.25;7.45;;;;;;;17.54;64.70;101408.84;4989851;28;20023;-58
2022/09/04 03:56:25;;;;;;;7.85;7.15;;;;;;;17.54;65.31;101414.09;4990524;28;20045;-58
2022/09/04 03:58:59;;;;;;;9.32;7.40;;;;;;;17.51;65.19;101413.19;4987197;28;20715;-58
2022/09/04 04:01:53;;;;;;;8.10;7.00;;;;;;;17.50;64.84;101409.69;4990007;28;20045;-58
2022/09/04 04:04:42;;;;;;;8.40;7.50;;;;;;;17.50;64.64;101412.31;4990795;28;20030;-58
2022/09/04 04:07:26;;;;;;;;;;;;;;;17.58;63.41;101414.09;4988386;28;20038;-58
2022/09/04 04:10:32;;;;;;;7.72;7.03;;;;;;;17.50;64.32;101420.22;4978344;28;19914;-58
2022/09/04 04:13:30;;;;;;;7.85;6.90;;;;;;;17.49;63.65;101421.09;4995159;28;20088;-57
2022/09/04 04:16:20;;;;;;;7.20;6.50;;;;;;;17.45;64.75;101423.72;4980898;28;20042;-58
2022/09/04 04:19:22;;;;;;;7.80;7.00;;;;;;;17.44;64.42;101427.22;4985631;28;20026;-58
2022/09/04 04:22:25;;;;;;;8.48;7.30;;;;;;;17.42;64.44;101435.13;4983956;28;20030;-58
2022/09/04 04:25:05;;;;;;;7.18;6.45;;;;;;;17.35;65.14;101434.22;4982161;28;20030;-58
2022/09/04 04:27:51;;;;;;;7.45;6.75;;;;;;;17.36;64.57;101435.97;4986818;28;20030;-58
2022/09/04 04:30:18;;;;;;;7.50;6.80;;;;;;;17.32;64.23;101444.75;4984024;28;20041;-58
2022/09/04 04:33:01;;;;;;;8.23;7.45;;;;;;;17.29;64.89;101454.38;4989348;28;20104;-58
2022/09/04 04:35:53;;;;;;;8.52;7.72;;;;;;;17.27;64.78;101454.38;4985992;28;20053;-58
2022/09/04 04:38:46;;;;;;;7.75;7.00;;;;;;;17.25;64.64;101461.38;4986259;28;20022;-58
2022/09/04 04:42:03;;;;;;;7.53;6.82;;;;;;;17.21;64.02;101457.84;4975635;28;20097;-58
2022/09/04 04:48:18;;;;;;;7.95;6.32;;;;;;;17.16;63.92;101451.69;4987652;28;20413;-58
2022/09/04 04:51:07;;;;;;;7.35;6.63;;;;;;;17.10;66.22;101453.38;4987659;28;20102;-58
2022/09/04 04:53:51;;;;;;;;;;;;;;;17.20;63.58;101455.19;4986917;28;20163;-57
2022/09/04 04:56:23;;;;;;;7.50;6.80;;;;;;;17.12;65.60;101451.63;4984893;28;19909;-57
2022/09/04 04:59:19;;;;;;;7.82;7.03;;;;;;;17.10;65.61;101462.16;4988617;28;20056;-58
2022/09/04 05:01:59;;;;;;;7.65;6.95;;;;;;;17.09;66.21;101463.03;4984884;28;20109;-58
2022/09/04 05:04:41;;;;;;;8.63;7.00;;;;;;;17.07;66.07;101470.03;4985477;28;20030;-58
2022/09/04 05:07:17;;;;;;;7.35;6.65;;;;;;;17.06;66.54;101465.66;4979953;28;20038;-58
2022/09/04 05:09:50;;;;;;;7.63;6.93;;;;;;;17.06;66.41;101472.66;4986010;28;20076;-57
2022/09/04 05:12:36;;;;;;;7.82;7.13;;;;;;;17.08;66.11;101478.84;4999827;28;21460;-57
2022/09/04 05:15:27;;;;;;;8.35;7.35;;;;;;;17.04;66.95;101480.56;4986394;28;20034;-57
2022/09/04 05:18:00;;;;;;;7.72;6.93;;;;;;;17.02;69.05;101487.56;4983994;28;20045;-57
2022/09/04 05:20:47;;;;;;;8.13;7.32;;;;;;;17.01;67.05;101488.44;4988137;28;20026;-58
2022/09/04 05:23:21;;;;;;;9.02;7.25;;;;;;;16.99;68.18;101493.69;4986809;28;20113;-58
2022/09/04 05:25:55;;;;;;;8.85;7.30;;;;;;;16.97;68.20;101497.16;4988770;28;20589;-58
2022/09/04 05:28:26;;;;;;;8.63;7.28;;;;;;;16.97;68.02;101498.03;4988427;28;20030;-58
2022/09/04 05:31:23;;;;;;;8.20;7.40;;;;;;;17.00;67.40;101505.09;4990035;28;20461;-58
2022/09/04 05:34:28;;;;;;;8.57;7.18;;;;;;;17.00;67.37;101510.34;4987236;28;20054;-57
2022/09/04 05:37:05;;;;;;;7.90;7.10;;;;;;;16.99;67.56;101513.88;4984044;28;20125;-57
2022/09/04 05:39:45;;;;;;;8.10;7.30;;;;;;;16.97;69.25;101515.59;4986666;28;20478;-57
2022/09/04 05:42:44;;;;;;;8.57;7.63;;;;;;;16.98;67.55;101515.59;4985794;28;20070;-57
2022/09/04 05:45:28;;;;;;;8.55;7.65;;;;;;;16.98;69.16;101517.38;4987686;28;20114;-58
2022/09/04 05:48:59;;;;;;;8.25;7.45;;;;;;;17.01;67.85;101535.81;4987177;28;20030;-58
2022/09/04 05:51:59;;;;;;;8.45;7.65;;;;;;;16.99;69.60;101532.31;4963774;28;20037;-57
2022/09/04 05:54:47;;;;;;;8.95;8.05;;;;;;;16.97;71.04;101536.66;4931671;28;20042;-58
2022/09/04 05:57:31;;;;;;;8.38;7.40;;;;;;;16.99;69.78;101540.22;4984218;28;20029;-57
2022/09/04 06:00:05;;;;;;;8.63;7.63;;;;;;;16.97;70.59;101539.28;4986751;28;20030;-58
2022/09/04 06:03:04;;;;;;;8.07;7.28;;;;;;;17.01;70.29;101548.97;4987046;28;20519;-58
2022/09/04 06:05:51;;;;;;;9.05;8.10;;;;;;;17.01;69.99;101551.63;4980128;28;20050;-58
2022/09/04 06:08:38;;;;;;;8.77;7.88;;;;;;;16.99;70.98;101543.72;4985426;28;20026;-58
2022/09/04 06:11:38;;;;;;;8.88;7.97;;;;;;;17.05;70.97;101550.78;4985530;28;20504;-58
2022/09/04 06:14:22;;;;;;;9.70;8.45;;;;;;;17.07;71.78;101549.03;4986737;28;20461;-58
2022/09/04 06:17:05;;;;;;;8.98;7.85;;;;;;;17.08;71.20;101550.81;4991665;28;20104;-58
2022/09/04 06:19:39;;;;;;;8.65;7.82;;;;;;;17.09;72.24;101547.31;4991667;28;20041;-58
2022/09/04 06:22:36;;;;;;;9.32;8.30;;;;;;;17.14;70.92;101544.69;4984198;28;20540;-58
2022/09/04 06:25:28;;;;;;;9.20;8.25;;;;;;;17.16;71.97;101551.75;4986219;28;20034;-58
2022/09/04 06:28:21;;;;;;;9.55;8.55;;;;;;;17.20;72.73;101564.03;4985124;28;20038;-58
2022/09/04 06:31:04;;;;;;;10.18;9.10;;;;;;;17.24;73.22;101566.72;4991049;28;20034;-58
2022/09/04 06:33:47;;;;;;;9.80;8.77;;;;;;;17.28;72.36;101560.59;4991230;28;20712;-58
2022/09/04 06:36:34;;;;;;;9.18;7.90;;;;;;;17.30;72.76;101565.00;4988293;28;20423;-58
2022/09/04 06:39:38;;;;;;;10.98;9.57;;;;;;;17.34;73.71;101571.19;4988222;28;20034;-58
2022/09/04 06:42:27;;;;;;;10.00;8.82;;;;;;;17.37;73.71;101569.44;4993174;28;20054;-58
2022/09/04 06:44:55;;;;;;;;;;;;;;;17.43;71.40;101565.97;4985013;28;20562;-58
2022/09/04 06:47:37;;;;;;;10.90;8.85;;;;;;;17.45;74.52;101572.16;4992192;28;20393;-58
2022/09/04 06:50:21;;;;;;;10.60;9.30;;;;;;;17.49;74.81;101568.66;4991154;28;20038;-58
2022/09/04 06:53:13;;;;;;;12.05;9.43;;;;;;;17.54;74.96;101568.69;4991717;28;20080;-58
2022/09/04 06:55:56;;;;;;;10.90;9.05;;;;;;;17.59;77.08;101574.00;4989017;28;20026;-57
2022/09/04 06:58:43;;;;;;;10.25;8.82;;;;;;;17.63;76.68;101565.25;4989150;28;20033;-57
2022/09/04 07:01:22;;;;;;;11.57;9.02;;;;;;;17.69;75.78;101575.81;4993354;28;20035;-58
2022/09/04 07:04:00;;;;;;;12.48;8.85;;;;;;;17.75;76.17;101567.06;4987483;28;20070;-57
2022/09/04 07:06:35;;;;;;;11.27;8.95;;;;;;;17.80;75.94;101571.47;4992170;28;20034;-57
2022/09/04 07:09:26;;;;;;;12.98;10.00;;;;;;;17.88;76.88;101576.78;4986954;28;20030;-58
2022/09/04 07:12:28;;;;;;;11.65;9.73;;;;;;;17.93;75.67;101571.56;4989954;28;20034;-58
2022/09/04 07:15:16;;;;;;;11.02;9.43;;;;;;;18.01;76.61;101581.28;4987987;28;20076;-58
2022/09/04 07:17:52;;;;;;;13.32;9.70;;;;;;;18.08;77.29;101585.69;4990231;28;20464;-58
2022/09/04 07:20:45;;;;;;;13.15;10.85;;;;;;;18.15;77.21;101586.63;4988588;28;20042;-58
2022/09/04 07:23:43;;;;;;;11.57;9.23;;;;;;;18.21;76.43;101585.78;4992667;28;20022;-57
2022/09/04 07:26:31;;;;;;;12.13;9.82;;;;;;;18.28;75.99;101582.28;4992852;28;20045;-58
2022/09/04 07:29:09;;;;;;;15.15;9.85;;;;;;;18.32;75.96;101584.06;4989770;28;20045;-58
2022/09/04 07:31:46;;;;;;;13.75;11.05;;;;;;;18.41;77.89;101583.19;4975165;28;20041;-58
2022/09/04 07:34:35;;;;;;;18.38;12.25;;;;;;;18.49;76.69;101588.50;4982222;28;20042;-58
2022/09/04 07:37:09;;;;;;;17.35;12.43;;;;;;;18.57;76.82;101598.19;4982645;28;20057;-58
2022/09/04 07:39:47;;;;;;;16.20;11.63;;;;;;;18.65;76.92;101607.88;4991243;28;20402;-58
2022/09/04 07:42:26;;;;;;;20.15;13.05;;;;;;;18.71;76.33;101602.63;4988554;28;20069;-58
2022/09/04 07:45:21;;;;;;;19.77;13.77;;;;;;;18.79;76.21;101611.44;4991689;28;20045;-59
2022/09/04 07:47:58;;;;;;;18.38;13.30;;;;;;;18.85;75.62;101600.88;4980349;28;20045;-58
2022/09/04 07:50:30;;;;;;;18.50;13.27;;;;;;;18.90;75.97;101601.81;4983974;28;20026;-58
2022/09/04 07:53:07;;;;;;;24.13;14.15;;;;;;;19.00;75.76;101609.72;4992227;28;20095;-58
2022/09/04 07:55:32;;;;;;;19.60;13.50;;;;;;;19.05;75.84;101614.13;4991538;28;20073;-58
2022/09/04 07:58:37;;;;;;;21.90;15.10;;;;;;;19.15;74.74;101616.78;4982372;28;20073;-59
2022/09/04 08:01:33;;;;;;;21.98;16.00;;;;;;;19.23;76.69;101622.97;4986753;28;20870;-59
2022/09/04 08:04:13;;;;;;;21.92;15.55;;;;;;;19.25;75.05;101616.78;4987218;28;20034;-59
2022/09/04 08:06:57;;;;;;;19.65;14.23;;;;;;;19.32;74.97;101612.41;4988099;28;20117;-58
2022/09/04 08:09:47;;;;;;;19.52;13.68;;;;;;;19.40;75.82;101620.31;4980876;28;20185;-59
2022/09/04 08:12:47;;;;;;;20.75;14.85;;;;;;;19.49;74.59;101624.72;4983954;28;20143;-59
2022/09/04 08:15:20;;;;;;;23.75;16.33;;;;;;;19.56;75.12;101632.63;4983869;28;20033;-58
2022/09/04 08:18:00;;;;;;;27.27;17.27;;;;;;;19.65;75.63;101629.09;4982171;28;20070;-58
2022/09/04 08:20:41;;;;;;;31.23;18.00;;;;;;;19.71;74.15;101625.56;4980618;28;20715;-58
2022/09/04 08:23:34;;;;;;;31.15;19.38;;;;;;;19.79;74.27;101631.75;4980635;28;20026;-57
2022/09/04 08:26:18;;;;;;;33.88;20.98;;;;;;;19.93;75.46;101631.72;4986357;28;20117;-58
2022/09/04 08:28:43;;;;;;;38.28;21.85;;;;;;;20.04;74.88;101639.63;4982877;28;20018;-57
2022/09/04 08:31:30;;;;;;;37.97;22.42;;;;;;;20.08;73.45;101641.38;4981448;28;20103;-57
2022/09/04 08:34:15;;;;;;;34.13;20.58;;;;;;;20.14;73.43;101636.94;4975369;28;20126;-57
2022/09/04 08:37:35;;;;;;;40.60;22.52;;;;;;;20.27;74.24;101645.72;4980217;28;20022;-56
2022/09/04 08:40:28;;;;;;;34.40;19.00;;;;;;;20.36;73.05;101649.22;4953956;28;20057;-57
2022/09/04 08:43:17;;;;;;;29.48;18.75;;;;;;;20.50;73.26;101650.03;4981395;28;20070;-56
2022/09/04 08:45:58;;;;;;;27.80;17.70;;;;;;;20.60;73.08;101649.09;4980218;28;20469;-56
2022/09/04 08:48:59;;;;;;;21.00;15.80;;;;;;;20.70;72.33;101646.41;4982408;28;20025;-56
2022/09/04 08:51:48;;;;;;;21.95;15.65;;;;;;;20.78;72.60;101649.91;4981328;28;20030;-58
2022/09/04 08:54:20;;;;;;;18.15;13.85;;;;;;;20.89;72.00;101658.69;4982243;28;20559;-59
2022/09/04 08:56:57;;;;;;;19.38;13.50;;;;;;;20.96;71.78;101657.75;4986898;28;20026;-59
2022/09/04 08:59:50;;;;;;;15.50;12.25;;;;;;;21.02;71.38;101659.47;4981476;28;20027;-58
2022/09/04 09:02:43;;;;;;;14.85;10.57;;;;;;;21.11;70.62;101650.59;4975303;28;20022;-57
2022/09/04 09:05:27;;;;;;;11.60;9.77;;;;;;;21.24;70.04;101654.91;4986294;28;20053;-58
2022/09/04 09:08:14;;;;;;;31.45;27.33;;;;;;;21.34;70.35;101656.59;4989164;28;20093;-57
2022/09/04 09:10:55;;;;;;;16.05;12.65;;;;;;;21.52;70.62;101660.00;4991076;28;20018;-58
2022/09/04 09:13:57;;;;;;;16.95;13.13;;;;;;;21.65;69.79;101659.00;4985045;28;20046;-57
2022/09/04 09:16:41;;;;;;;16.15;8.57;;;;;;;21.78;68.71;101654.44;4985041;28;20109;-58
2022/09/04 09:19:32;;;;;;;12.27;8.50;;;;;;;21.89;68.13;101657.00;4990000;28;20041;-60
2022/09/04 09:22:00;;;;;;;11.88;9.07;;;;;;;21.99;67.43;101650.69;4987108;28;20037;-58
2022/09/04 09:25:03;;;;;;;9.73;7.40;;;;;;;22.15;67.74;101651.41;4990214;28;20114;-57
2022/09/04 09:28:13;;;;;;;9.02;7.30;;;;;;;22.23;66.76;101648.63;4987425;28;20038;-57
2022/09/04 09:31:04;;;;;;;10.45;8.35;;;;;;;22.40;66.25;101649.38;4982900;28;20118;-56
2022/09/04 09:33:53;;;;;;;13.07;7.78;;;;;;;22.51;66.55;101640.38;4977815;28;20031;-60
2022/09/04 09:36:46;;;;;;;8.80;6.85;;;;;;;22.69;65.54;101636.59;4978872;28;20034;-56
2022/09/04 09:40:02;;;;;;;11.35;8.35;;;;;;;22.79;64.32;101640.84;4986452;28;20464;-60
2022/09/04 09:43:00;;;;;;;11.32;6.88;;;;;;;22.88;63.77;101646.06;4967445;28;20046;-56
2022/09/04 09:45:54;;;;;;;10.50;7.43;;;;;;;23.01;63.06;101638.75;4973640;28;20143;-58
2022/09/04 09:48:22;;;;;;;11.60;7.85;;;;;;;23.16;63.14;101644.75;4989046;28;20432;-60
2022/09/04 09:51:06;;;;;;;10.15;7.03;;;;;;;23.23;63.13;101644.66;4994865;28;20062;-59
2022/09/04 09:54:03;;;;;;;13.90;8.10;;;;;;;23.39;62.38;101649.69;4985217;28;20478;-60
2022/09/04 09:56:47;;;;;;;12.27;8.77;;;;;;;23.50;61.93;101645.06;4987125;28;20030;-57
2022/09/04 09:59:21;;;;;;;13.93;9.65;;;;;;;23.61;61.08;101647.56;4989252;28;20066;-55
2022/09/04 10:02:02;;;;;;;13.63;9.05;;;;;;;23.74;61.49;101651.75;4985608;28;20034;-57
2022/09/04 10:04:57;;;;;;;17.80;8.65;;;;;;;23.80;61.19;101650.75;4985892;28;20037;-57
2022/09/04 10:07:41;;;;;;;15.05;10.10;;;;;;;23.89;61.15;101647.06;4982440;28;20050;-58
2022/09/04 10:10:18;;;;;;;18.55;11.00;;;;;;;23.99;60.71;101651.31;4985025;28;20030;-58
2022/09/04 10:13:21;;;;;;;17.70;11.00;;;;;;;24.07;60.59;101652.03;4988762;28;20022;-58
2022/09/04 10:16:01;;;;;;;15.85;9.63;;;;;;;24.15;60.22;101656.34;4981917;28;20034;-57
2022/09/04 10:18:47;;;;;;;21.83;14.27;;;;;;;24.15;60.11;101646.56;4977826;28;20085;-56
2022/09/04 10:21:34;;;;;;;19.63;13.32;;;;;;;24.21;59.80;101654.41;4986911;28;20057;-58
2022/09/04 10:24:09;;;;;;;26.73;10.95;;;;;;;24.24;58.80;101653.47;4986071;28;20042;-58
2022/09/04 10:27:15;;;;;;;15.93;10.15;;;;;;;24.30;59.56;101656.00;4988613;28;20514;-57
2022/09/04 10:29:53;;;;;;;14.50;9.55;;;;;;;24.37;57.17;101651.44;4928077;28;20035;-57
2022/09/04 10:32:33;;;;;;;15.10;8.60;;;;;;;24.46;57.98;101656.56;4925483;29;20546;-58
2022/09/04 10:35:20;;;;;;;12.07;8.32;;;;;;;24.54;57.04;101661.75;4969801;28;20038;-57
2022/09/04 10:38:18;;;;;;;12.25;8.10;;;;;;;24.62;56.24;101657.13;4983970;28;20482;-58
2022/09/04 10:41:14;;;;;;;10.63;8.00;;;;;;;24.59;56.75;101658.09;4979113;28;20441;-58
2022/09/04 10:43:39;;;;;;;12.05;8.25;;;;;;;24.65;56.49;101652.63;4987776;28;20446;-60
2022/09/04 10:46:15;;;;;;;28.83;24.60;;;;;;;24.75;56.25;101653.31;4986356;28;20046;-58
2022/09/04 10:48:47;;;;;;;10.00;6.90;;;;;;;24.87;54.12;101657.47;4983163;28;20022;-57
2022/09/04 10:51:38;;;;;;;10.60;7.43;;;;;;;24.98;55.21;101657.19;4987536;28;20038;-58
2022/09/04 10:54:15;;;;;;;9.65;6.78;;;;;;;25.12;53.38;101652.41;4985978;28;20022;-59
2022/09/04 10:57:03;;;;;;;9.55;6.25;;;;;;;25.24;52.26;101656.56;4989155;28;20070;-59
2022/09/04 10:59:47;;;;;;;9.88;7.15;;;;;;;25.30;52.44;101650.19;4989212;28;20033;-59
2022/09/04 11:02:33;;;;;;;9.85;6.90;;;;;;;25.31;51.99;101649.34;4986585;28;20030;-56
2022/09/04 11:05:31;;;;;;;23.98;18.83;;;;;;;25.29;51.79;101653.81;4982963;28;20033;-55
2022/09/04 11:08:08;;;;;;;11.55;7.72;;;;;;;25.27;50.00;101652.94;4992619;28;20096;-58
2022/09/04 11:10:41;;;;;;;10.63;7.22;;;;;;;25.30;51.68;101653.78;4987547;28;20100;-59
2022/09/04 11:13:22;;;;;;;12.82;7.43;;;;;;;25.33;51.80;101651.06;4982848;28;20042;-59
2022/09/04 11:15:53;;;;;;;12.98;7.15;;;;;;;25.37;50.81;101646.50;4985977;28;20033;-58
2022/09/04 11:18:40;;;;;;;10.18;6.32;;;;;;;25.39;50.64;101652.69;4986181;28;20421;-57
2022/09/04 11:21:39;;;;;;;9.30;6.82;;;;;;;25.41;50.87;101653.50;4998674;28;20034;-58
2022/09/04 11:24:13;;;;;;;10.45;6.50;;;;;;;25.33;49.25;101652.81;4988089;28;20038;-59
2022/09/04 11:27:00;;;;;;;9.57;6.75;;;;;;;25.49;50.24;101642.63;4982340;28;20104;-58
2022/09/04 11:29:47;;;;;;;10.80;6.80;;;;;;;25.56;51.11;101649.56;4989325;28;22114;-58
2022/09/04 11:32:20;;;;;;;10.32;6.57;;;;;;;25.65;50.09;101641.34;4991448;28;20467;-59
2022/09/04 11:35:05;;;;;;;10.45;6.32;;;;;;;25.78;49.16;101643.66;4989671;28;20015;-58
2022/09/04 11:37:58;;;;;;;11.80;6.18;;;;;;;25.82;48.33;101654.22;4986126;28;20033;-59
2022/09/04 11:40:41;;;;;;;10.30;6.10;;;;;;;25.91;47.74;101652.19;4989272;28;20485;-56
2022/09/04 11:44:00;;;;;;;10.57;6.18;;;;;;;25.95;48.60;101644.06;4988983;28;20042;-56
2022/09/04 11:47:05;;;;;;;17.38;7.28;;;;;;;26.03;46.27;101650.09;4968612;28;20035;-56
2022/09/04 11:50:09;;;;;;;11.90;6.40;;;;;;;26.08;47.08;101652.63;4904999;29;20079;-56
2022/09/04 11:52:47;;;;;;;10.70;6.38;;;;;;;26.17;45.21;101657.72;4971277;28;20045;-60
2022/09/04 11:55:16;;;;;;;9.15;6.25;;;;;;;26.26;43.21;101661.03;4984415;28;20026;-57
2022/09/04 11:57:50;;;;;;;9.40;6.43;;;;;;;26.32;43.64;101660.88;4991765;28;20037;-59
2022/09/04 12:00:17;;;;;;;10.93;6.00;;;;;;;26.35;43.34;101652.78;4990689;28;20234;-57
2022/09/04 12:02:43;;;;;;;8.52;5.80;;;;;;;26.40;41.16;101653.50;4985140;28;20093;-59
2022/09/04 12:05:50;;;;;;;10.77;5.87;;;;;;;26.42;43.93;101665.03;4982392;28;20041;-55
2022/09/04 12:08:49;;;;;;;9.75;5.93;;;;;;;26.51;43.94;101659.38;4977067;28;20047;-58
2022/09/04 12:11:36;;;;;;;9.65;6.47;;;;;;;26.54;41.86;101647.75;4991534;28;20042;-59
2022/09/04 12:14:30;;;;;;;9.85;6.32;;;;;;;26.64;44.19;101661.72;4980329;28;20104;-59
2022/09/04 12:17:14;;;;;;;7.47;6.10;;;;;;;26.67;43.53;101658.94;4987544;28;20132;-58
2022/09/04 12:20:07;;;;;;;21.02;6.97;;;;;;;26.73;43.85;101669.47;4987449;28;20085;-59
2022/09/04 12:23:07;;;;;;;7.70;5.65;;;;;;;26.72;41.98;101673.06;4990229;28;20375;-59
2022/09/04 12:25:35;;;;;;;11.60;5.60;;;;;;;26.70;41.88;101666.88;4979487;28;20033;-59
2022/09/04 12:28:16;;;;;;;9.48;5.93;;;;;;;26.79;42.61;101665.72;4990709;28;20042;-59
2022/09/04 12:31:01;;;;;;;14.65;6.25;;;;;;;26.79;43.55;101668.41;4991918;28;20037;-58
2022/09/04 12:34:23;;;;;;;9.07;5.97;;;;;;;26.75;43.24;101672.97;4980395;28;20116;-59
2022/09/04 12:37:10;;;;;;;7.68;5.10;;;;;;;26.81;42.13;101671.88;4946650;28;20035;-58
2022/09/04 12:40:03;;;;;;;7.78;5.35;;;;;;;26.85;43.29;101661.06;4949591;28;20031;-58
2022/09/04 12:42:34;;;;;;;8.25;5.18;;;;;;;26.86;41.19;101659.25;4969460;28;20085;-58
2022/09/04 12:45:31;;;;;;;6.18;5.10;;;;;;;26.87;43.55;101659.22;4993119;28;20031;-59
2022/09/04 12:48:23;;;;;;;7.38;5.40;;;;;;;26.96;43.44;101667.88;4986080;28;20121;-59
2022/09/04 12:50:54;;;;;;;8.10;5.20;;;;;;;26.99;42.34;101667.78;4984277;28;20022;-58